sensor_id;sensor_type;location;lat;lon;timestamp;P1;durP1;ratioP1;P2;durP2;ratioP2
23617;SDS011;18207;32.078;34.818;2022-11-15T00:01:14;3.35;;;3.15;;
23617;SDS011;18207;32.078;34.818;2022-11-15T00:03:46;3.65;;;3.35;;
23617;SDS011;18207;32.078;34.818;2022-11-15T00:06:22;3.72;;;3.42;;
23617;SDS011;18207;32.078;34.818;2022-11-15T00:08:53;4.18;;;3.88;;
23617;SDS011;18207;32.078;34.818;2022-11-15T00:11:24;4.35;;;3.95;;
23617;SDS011;18207;32.078;34.818;2022-11-15T00:13:54;4.20;;;3.72;;
23617;SDS011;18207;32.078;34.818;2022-11-15T00:16:25;4.10;;;3.80;;
23617;SDS011;18207;32.078;34.818;2022-11-15T00:18:56;4.20;;;3.90;;
23617;SDS011;18207;32.078;34.818;2022-11-15T00:21:28;4.32;;;3.75;;
23617;SDS011;18207;32.078;34.818;2022-11-15T00:23:58;4.13;;;3.83;;
23617;SDS011;18207;32.078;34.818;2022-11-15T00:26:29;3.55;;;3.25;;
23617;SDS011;18207;32.078;34.818;2022-11-15T00:28:59;4.53;;;4.13;;
23617;SDS011;18207;32.078;34.818;2022-11-15T00:31:30;3.97;;;3.67;;
23617;SDS011;18207;32.078;34.818;2022-11-15T00:34:00;4.07;;;3.70;;
23617;SDS011;18207;32.078;34.818;2022-11-15T00:36:34;3.80;;;3.50;;
23617;SDS011;18207;32.078;34.818;2022-11-15T00:39:04;4.05;;;3.72;;
23617;SDS011;18207;32.078;34.818;2022-11-15T00:41:35;4.25;;;3.80;;
23617;SDS011;18207;32.078;34.818;2022-11-15T00:44:05;4.40;;;4.00;;
23617;SDS011;18207;32.078;34.818;2022-11-15T00:46:36;4.18;;;3.80;;
23617;SDS011;18207;32.078;34.818;2022-11-15T00:49:06;4.15;;;3.75;;
23617;SDS011;18207;32.078;34.818;2022-11-15T00:51:38;4.22;;;3.83;;
23617;SDS011;18207;32.078;34.818;2022-11-15T00:54:08;4.22;;;3.90;;
23617;SDS011;18207;32.078;34.818;2022-11-15T00:56:38;4.63;;;4.22;;
23617;SDS011;18207;32.078;34.818;2022-11-15T00:59:09;4.85;;;3.80;;
23617;SDS011;18207;32.078;34.818;2022-11-15T01:01:39;4.05;;;3.75;;
23617;SDS011;18207;32.078;34.818;2022-11-15T01:04:09;4.05;;;3.75;;
23617;SDS011;18207;32.078;34.818;2022-11-15T01:06:42;4.10;;;3.80;;
23617;SDS011;18207;32.078;34.818;2022-11-15T01:09:12;4.35;;;3.95;;
23617;SDS011;18207;32.078;34.818;2022-11-15T01:11:45;4.13;;;3.83;;
23617;SDS011;18207;32.078;34.818;2022-11-15T01:14:15;4.40;;;4.10;;
23617;SDS011;18207;32.078;34.818;2022-11-15T01:16:50;4.25;;;3.92;;
23617;SDS011;18207;32.078;34.818;2022-11-15T01:19:21;4.40;;;4.00;;
23617;SDS011;18207;32.078;34.818;2022-11-15T01:21:53;4.32;;;4.03;;
23617;SDS011;18207;32.078;34.818;2022-11-15T01:24:24;4.75;;;3.90;;
23617;SDS011;18207;32.078;34.818;2022-11-15T01:26:54;4.55;;;4.15;;
23617;SDS011;18207;32.078;34.818;2022-11-15T01:29:24;4.10;;;3.80;;
23617;SDS011;18207;32.078;34.818;2022-11-15T01:31:55;4.53;;;4.13;;
23617;SDS011;18207;32.078;34.818;2022-11-15T01:34:25;4.95;;;4.53;;
23617;SDS011;18207;32.078;34.818;2022-11-15T01:36:58;4.60;;;4.20;;
23617;SDS011;18207;32.078;34.818;2022-11-15T01:39:28;4.38;;;4.00;;
23617;SDS011;18207;32.078;34.818;2022-11-15T01:41:58;4.43;;;4.07;;
23617;SDS011;18207;32.078;34.818;2022-11-15T01:44:40;4.07;;;3.78;;
23617;SDS011;18207;32.078;34.818;2022-11-15T01:47:15;4.68;;;4.30;;
23617;SDS011;18207;32.078;34.818;2022-11-15T01:49:50;5.07;;;4.63;;
23617;SDS011;18207;32.078;34.818;2022-11-15T01:52:36;4.45;;;4.05;;
23617;SDS011;18207;32.078;34.818;2022-11-15T01:55:11;4.63;;;4.22;;
23617;SDS011;18207;32.078;34.818;2022-11-15T01:57:50;5.03;;;4.63;;
23617;SDS011;18207;32.078;34.818;2022-11-15T02:00:26;4.80;;;4.40;;
23617;SDS011;18207;32.078;34.818;2022-11-15T02:02:58;4.90;;;4.50;;
23617;SDS011;18207;32.078;34.818;2022-11-15T02:05:29;5.22;;;4.72;;
23617;SDS011;18207;32.078;34.818;2022-11-15T02:08:03;5.25;;;4.78;;
23617;SDS011;18207;32.078;34.818;2022-11-15T02:10:35;5.05;;;4.55;;
23617;SDS011;18207;32.078;34.818;2022-11-15T02:13:05;4.80;;;4.40;;
23617;SDS011;18207;32.078;34.818;2022-11-15T02:15:37;4.95;;;4.55;;
23617;SDS011;18207;32.078;34.818;2022-11-15T02:18:30;4.95;;;4.45;;
23617;SDS011;18207;32.078;34.818;2022-11-15T02:21:09;5.53;;;5.00;;
23617;SDS011;18207;32.078;34.818;2022-11-15T02:24:07;4.75;;;4.40;;
23617;SDS011;18207;32.078;34.818;2022-11-15T02:30:42;4.32;;;3.95;;
23617;SDS011;18207;32.078;34.818;2022-11-15T02:33:25;4.57;;;4.18;;
23617;SDS011;18207;32.078;34.818;2022-11-15T02:36:05;4.95;;;4.45;;
23617;SDS011;18207;32.078;34.818;2022-11-15T02:38:52;5.05;;;4.65;;
23617;SDS011;18207;32.078;34.818;2022-11-15T02:41:41;5.13;;;4.47;;
23617;SDS011;18207;32.078;34.818;2022-11-15T02:44:23;4.53;;;4.13;;
23617;SDS011;18207;32.078;34.818;2022-11-15T02:47:00;5.07;;;4.57;;
23617;SDS011;18207;32.078;34.818;2022-11-15T02:49:43;4.82;;;4.43;;
23617;SDS011;18207;32.078;34.818;2022-11-15T02:52:19;5.45;;;4.95;;
23617;SDS011;18207;32.078;34.818;2022-11-15T02:54:53;5.35;;;4.55;;
23617;SDS011;18207;32.078;34.818;2022-11-15T02:57:27;5.20;;;4.70;;
23617;SDS011;18207;32.078;34.818;2022-11-15T03:00:13;4.93;;;4.45;;
23617;SDS011;18207;32.078;34.818;2022-11-15T03:06:00;4.55;;;4.15;;
23617;SDS011;18207;32.078;34.818;2022-11-15T03:08:46;4.82;;;4.45;;
23617;SDS011;18207;32.078;34.818;2022-11-15T03:11:28;4.85;;;4.43;;
23617;SDS011;18207;32.078;34.818;2022-11-15T03:14:06;5.00;;;4.60;;
23617;SDS011;18207;32.078;34.818;2022-11-15T03:16:49;4.30;;;4.00;;
23617;SDS011;18207;32.078;34.818;2022-11-15T03:19:31;4.65;;;4.25;;
23617;SDS011;18207;32.078;34.818;2022-11-15T03:22:10;5.15;;;4.47;;
23617;SDS011;18207;32.078;34.818;2022-11-15T03:24:46;4.82;;;4.43;;
23617;SDS011;18207;32.078;34.818;2022-11-15T03:27:26;4.80;;;4.40;;
23617;SDS011;18207;32.078;34.818;2022-11-15T03:30:03;4.40;;;4.10;;
23617;SDS011;18207;32.078;34.818;2022-11-15T03:32:38;4.97;;;4.55;;
23617;SDS011;18207;32.078;34.818;2022-11-15T03:35:17;4.90;;;4.50;;
23617;SDS011;18207;32.078;34.818;2022-11-15T03:37:53;4.97;;;4.47;;
23617;SDS011;18207;32.078;34.818;2022-11-15T03:40:30;4.82;;;4.43;;
23617;SDS011;18207;32.078;34.818;2022-11-15T03:43:09;5.22;;;4.32;;
23617;SDS011;18207;32.078;34.818;2022-11-15T03:45:50;4.97;;;4.47;;
23617;SDS011;18207;32.078;34.818;2022-11-15T03:48:27;4.63;;;4.22;;
23617;SDS011;18207;32.078;34.818;2022-11-15T03:51:21;5.13;;;4.63;;
23617;SDS011;18207;32.078;34.818;2022-11-15T03:53:53;4.70;;;4.30;;
23617;SDS011;18207;32.078;34.818;2022-11-15T03:56:23;4.68;;;4.28;;
23617;SDS011;18207;32.078;34.818;2022-11-15T03:58:53;4.60;;;4.20;;
23617;SDS011;18207;32.078;34.818;2022-11-15T04:01:23;4.90;;;4.50;;
23617;SDS011;18207;32.078;34.818;2022-11-15T04:03:54;4.85;;;4.45;;
23617;SDS011;18207;32.078;34.818;2022-11-15T04:06:27;4.70;;;4.30;;
23617;SDS011;18207;32.078;34.818;2022-11-15T04:08:57;4.70;;;4.40;;
23617;SDS011;18207;32.078;34.818;2022-11-15T04:11:27;5.15;;;4.70;;
23617;SDS011;18207;32.078;34.818;2022-11-15T04:13:58;4.57;;;4.20;;
23617;SDS011;18207;32.078;34.818;2022-11-15T04:16:28;4.53;;;4.13;;
23617;SDS011;18207;32.078;34.818;2022-11-15T04:18:59;5.18;;;4.75;;
23617;SDS011;18207;32.078;34.818;2022-11-15T04:21:48;4.82;;;4.43;;
23617;SDS011;18207;32.078;34.818;2022-11-15T04:24:35;4.90;;;4.47;;
23617;SDS011;18207;32.078;34.818;2022-11-15T04:27:05;4.82;;;4.40;;
23617;SDS011;18207;32.078;34.818;2022-11-15T04:29:36;5.15;;;4.75;;
23617;SDS011;18207;32.078;34.818;2022-11-15T04:32:07;4.53;;;4.13;;
23617;SDS011;18207;32.078;34.818;2022-11-15T04:34:37;4.53;;;4.13;;
23617;SDS011;18207;32.078;34.818;2022-11-15T04:37:09;4.45;;;4.13;;
23617;SDS011;18207;32.078;34.818;2022-11-15T04:39:43;4.85;;;4.45;;
23617;SDS011;18207;32.078;34.818;2022-11-15T04:42:13;5.50;;;4.75;;
23617;SDS011;18207;32.078;34.818;2022-11-15T04:44:43;5.07;;;4.63;;
23617;SDS011;18207;32.078;34.818;2022-11-15T04:47:13;4.85;;;4.53;;
23617;SDS011;18207;32.078;34.818;2022-11-15T04:49:45;4.85;;;4.45;;
23617;SDS011;18207;32.078;34.818;2022-11-15T04:52:18;5.13;;;4.60;;
23617;SDS011;18207;32.078;34.818;2022-11-15T04:54:48;4.80;;;4.40;;
23617;SDS011;18207;32.078;34.818;2022-11-15T04:57:18;4.90;;;4.50;;
23617;SDS011;18207;32.078;34.818;2022-11-15T04:59:49;4.85;;;4.40;;
23617;SDS011;18207;32.078;34.818;2022-11-15T05:02:19;4.93;;;4.53;;
23617;SDS011;18207;32.078;34.818;2022-11-15T05:04:49;5.15;;;4.65;;
23617;SDS011;18207;32.078;34.818;2022-11-15T05:07:20;4.55;;;4.18;;
23617;SDS011;18207;32.078;34.818;2022-11-15T05:09:51;5.03;;;4.63;;
23617;SDS011;18207;32.078;34.818;2022-11-15T05:12:22;4.63;;;4.22;;
23617;SDS011;18207;32.078;34.818;2022-11-15T05:14:51;5.15;;;4.65;;
23617;SDS011;18207;32.078;34.818;2022-11-15T05:17:21;4.82;;;4.38;;
23617;SDS011;18207;32.078;34.818;2022-11-15T05:19:52;4.75;;;4.35;;
23617;SDS011;18207;32.078;34.818;2022-11-15T05:22:24;4.90;;;4.50;;
23617;SDS011;18207;32.078;34.818;2022-11-15T05:24:54;4.63;;;4.25;;
23617;SDS011;18207;32.078;34.818;2022-11-15T05:27:24;4.78;;;4.38;;
23617;SDS011;18207;32.078;34.818;2022-11-15T05:29:54;5.13;;;4.63;;
23617;SDS011;18207;32.078;34.818;2022-11-15T05:32:25;5.10;;;4.60;;
23617;SDS011;18207;32.078;34.818;2022-11-15T05:34:56;4.93;;;4.53;;
23617;SDS011;18207;32.078;34.818;2022-11-15T05:37:30;5.53;;;4.55;;
23617;SDS011;18207;32.078;34.818;2022-11-15T05:40:00;5.45;;;4.95;;
23617;SDS011;18207;32.078;34.818;2022-11-15T05:42:29;5.05;;;4.57;;
23617;SDS011;18207;32.078;34.818;2022-11-15T05:45:00;4.78;;;4.35;;
23617;SDS011;18207;32.078;34.818;2022-11-15T05:47:35;4.97;;;4.57;;
23617;SDS011;18207;32.078;34.818;2022-11-15T05:50:08;5.13;;;4.65;;
23617;SDS011;18207;32.078;34.818;2022-11-15T05:52:46;5.18;;;4.68;;
23617;SDS011;18207;32.078;34.818;2022-11-15T05:55:17;5.35;;;4.88;;
23617;SDS011;18207;32.078;34.818;2022-11-15T05:57:48;5.68;;;5.07;;
23617;SDS011;18207;32.078;34.818;2022-11-15T06:00:18;5.30;;;4.80;;
23617;SDS011;18207;32.078;34.818;2022-11-15T06:02:49;5.25;;;4.75;;
23617;SDS011;18207;32.078;34.818;2022-11-15T06:05:20;5.18;;;4.78;;
23617;SDS011;18207;32.078;34.818;2022-11-15T06:07:52;4.90;;;4.47;;
23617;SDS011;18207;32.078;34.818;2022-11-15T06:10:27;5.32;;;4.82;;
23617;SDS011;18207;32.078;34.818;2022-11-15T06:12:58;5.40;;;4.93;;
23617;SDS011;18207;32.078;34.818;2022-11-15T06:15:29;6.53;;;4.90;;
23617;SDS011;18207;32.078;34.818;2022-11-15T06:18:00;5.25;;;4.85;;
23617;SDS011;18207;32.078;34.818;2022-11-15T06:20:31;5.45;;;4.57;;
23617;SDS011;18207;32.078;34.818;2022-11-15T06:23:03;5.32;;;4.53;;
23617;SDS011;18207;32.078;34.818;2022-11-15T06:25:34;5.13;;;4.70;;
23617;SDS011;18207;32.078;34.818;2022-11-15T06:28:04;5.32;;;4.72;;
23617;SDS011;18207;32.078;34.818;2022-11-15T06:30:35;4.43;;;4.03;;
23617;SDS011;18207;32.078;34.818;2022-11-15T06:33:06;7.10;;;5.10;;
23617;SDS011;18207;32.078;34.818;2022-11-15T06:35:37;5.45;;;4.93;;
23617;SDS011;18207;32.078;34.818;2022-11-15T06:38:10;5.80;;;4.53;;
23617;SDS011;18207;32.078;34.818;2022-11-15T06:40:41;5.18;;;4.78;;
23617;SDS011;18207;32.078;34.818;2022-11-15T06:43:11;5.18;;;4.43;;
23617;SDS011;18207;32.078;34.818;2022-11-15T06:45:41;5.97;;;4.57;;
23617;SDS011;18207;32.078;34.818;2022-11-15T06:48:11;5.35;;;4.68;;
23617;SDS011;18207;32.078;34.818;2022-11-15T06:50:44;4.75;;;4.35;;
23617;SDS011;18207;32.078;34.818;2022-11-15T06:53:22;4.82;;;4.35;;
23617;SDS011;18207;32.078;34.818;2022-11-15T06:55:52;5.05;;;4.47;;
23617;SDS011;18207;32.078;34.818;2022-11-15T06:58:27;4.82;;;4.43;;
23617;SDS011;18207;32.078;34.818;2022-11-15T07:00:58;5.00;;;4.50;;
23617;SDS011;18207;32.078;34.818;2022-11-15T07:03:30;5.38;;;4.50;;
23617;SDS011;18207;32.078;34.818;2022-11-15T07:06:03;4.80;;;4.40;;
23617;SDS011;18207;32.078;34.818;2022-11-15T07:08:36;5.10;;;4.60;;
23617;SDS011;18207;32.078;34.818;2022-11-15T07:11:08;5.13;;;4.65;;
23617;SDS011;18207;32.078;34.818;2022-11-15T07:13:40;4.95;;;4.47;;
23617;SDS011;18207;32.078;34.818;2022-11-15T07:16:10;4.38;;;4.07;;
23617;SDS011;18207;32.078;34.818;2022-11-15T07:18:41;3.60;;;3.30;;
23617;SDS011;18207;32.078;34.818;2022-11-15T07:21:12;3.90;;;3.33;;
23617;SDS011;18207;32.078;34.818;2022-11-15T07:23:44;3.15;;;2.83;;
23617;SDS011;18207;32.078;34.818;2022-11-15T07:26:14;3.03;;;2.72;;
23617;SDS011;18207;32.078;34.818;2022-11-15T07:28:44;3.20;;;2.97;;
23617;SDS011;18207;32.078;34.818;2022-11-15T07:31:14;3.35;;;3.10;;
23617;SDS011;18207;32.078;34.818;2022-11-15T07:33:45;3.15;;;2.85;;
23617;SDS011;18207;32.078;34.818;2022-11-15T07:36:15;3.70;;;3.35;;
23617;SDS011;18207;32.078;34.818;2022-11-15T07:38:46;3.50;;;3.20;;
23617;SDS011;18207;32.078;34.818;2022-11-15T07:41:16;3.95;;;3.08;;
23617;SDS011;18207;32.078;34.818;2022-11-15T07:43:47;3.22;;;2.95;;
23617;SDS011;18207;32.078;34.818;2022-11-15T07:46:21;4.32;;;3.25;;
23617;SDS011;18207;32.078;34.818;2022-11-15T07:48:51;3.45;;;3.15;;
23617;SDS011;18207;32.078;34.818;2022-11-15T07:51:22;3.58;;;3.28;;
23617;SDS011;18207;32.078;34.818;2022-11-15T07:53:55;3.50;;;3.28;;
23617;SDS011;18207;32.078;34.818;2022-11-15T07:56:28;3.67;;;3.38;;
23617;SDS011;18207;32.078;34.818;2022-11-15T07:58:58;3.60;;;3.30;;
23617;SDS011;18207;32.078;34.818;2022-11-15T08:01:28;3.60;;;3.30;;
23617;SDS011;18207;32.078;34.818;2022-11-15T08:03:59;3.65;;;3.35;;
23617;SDS011;18207;32.078;34.818;2022-11-15T08:06:33;3.47;;;3.17;;
23617;SDS011;18207;32.078;34.818;2022-11-15T08:09:05;5.78;;;3.30;;
23617;SDS011;18207;32.078;34.818;2022-11-15T08:11:36;3.08;;;2.85;;
23617;SDS011;18207;32.078;34.818;2022-11-15T08:14:07;3.20;;;3.00;;
23617;SDS011;18207;32.078;34.818;2022-11-15T08:16:37;2.83;;;2.63;;
23617;SDS011;18207;32.078;34.818;2022-11-15T08:19:08;3.28;;;2.97;;
23617;SDS011;18207;32.078;34.818;2022-11-15T08:21:38;3.20;;;3.00;;
23617;SDS011;18207;32.078;34.818;2022-11-15T08:24:11;3.17;;;2.88;;
23617;SDS011;18207;32.078;34.818;2022-11-15T08:26:41;3.10;;;2.90;;
23617;SDS011;18207;32.078;34.818;2022-11-15T08:29:12;3.00;;;2.80;;
23617;SDS011;18207;32.078;34.818;2022-11-15T08:31:43;2.83;;;2.63;;
23617;SDS011;18207;32.078;34.818;2022-11-15T08:34:13;3.00;;;2.80;;
23617;SDS011;18207;32.078;34.818;2022-11-15T08:36:43;2.80;;;2.60;;
23617;SDS011;18207;32.078;34.818;2022-11-15T08:39:16;2.95;;;2.75;;
23617;SDS011;18207;32.078;34.818;2022-11-15T08:41:47;2.67;;;2.47;;
23617;SDS011;18207;32.078;34.818;2022-11-15T08:44:17;2.60;;;2.40;;
23617;SDS011;18207;32.078;34.818;2022-11-15T08:46:48;2.85;;;2.65;;
23617;SDS011;18207;32.078;34.818;2022-11-15T08:49:19;2.90;;;2.70;;
23617;SDS011;18207;32.078;34.818;2022-11-15T08:51:49;2.55;;;2.42;;
23617;SDS011;18207;32.078;34.818;2022-11-15T08:54:21;2.53;;;2.42;;
23617;SDS011;18207;32.078;34.818;2022-11-15T08:56:50;2.72;;;2.53;;
23617;SDS011;18207;32.078;34.818;2022-11-15T08:59:21;2.72;;;2.53;;
23617;SDS011;18207;32.078;34.818;2022-11-15T09:01:52;2.40;;;2.30;;
23617;SDS011;18207;32.078;34.818;2022-11-15T09:04:23;3.55;;;2.70;;
23617;SDS011;18207;32.078;34.818;2022-11-15T09:06:54;2.75;;;2.55;;
23617;SDS011;18207;32.078;34.818;2022-11-15T09:09:25;2.63;;;2.50;;
23617;SDS011;18207;32.078;34.818;2022-11-15T09:11:56;2.50;;;2.30;;
23617;SDS011;18207;32.078;34.818;2022-11-15T09:14:29;2.80;;;2.60;;
23617;SDS011;18207;32.078;34.818;2022-11-15T09:16:59;2.95;;;2.75;;
23617;SDS011;18207;32.078;34.818;2022-11-15T09:19:30;2.50;;;2.33;;
23617;SDS011;18207;32.078;34.818;2022-11-15T09:22:01;2.45;;;2.35;;
23617;SDS011;18207;32.078;34.818;2022-11-15T09:24:36;2.55;;;2.40;;
23617;SDS011;18207;32.078;34.818;2022-11-15T09:27:07;2.40;;;2.20;;
23617;SDS011;18207;32.078;34.818;2022-11-15T09:29:37;2.35;;;2.25;;
23617;SDS011;18207;32.078;34.818;2022-11-15T09:32:09;2.50;;;2.30;;
23617;SDS011;18207;32.078;34.818;2022-11-15T09:34:39;2.50;;;2.40;;
23617;SDS011;18207;32.078;34.818;2022-11-15T09:37:09;2.72;;;2.53;;
23617;SDS011;18207;32.078;34.818;2022-11-15T09:39:42;2.20;;;2.10;;
23617;SDS011;18207;32.078;34.818;2022-11-15T09:42:25;2.70;;;2.50;;
23617;SDS011;18207;32.078;34.818;2022-11-15T09:45:17;2.55;;;2.33;;
23617;SDS011;18207;32.078;34.818;2022-11-15T09:51:13;2.42;;;2.22;;
23617;SDS011;18207;32.078;34.818;2022-11-15T09:53:57;2.70;;;2.50;;
23617;SDS011;18207;32.078;34.818;2022-11-15T09:57:04;2.30;;;2.20;;
23617;SDS011;18207;32.078;34.818;2022-11-15T10:03:09;2.25;;;2.15;;
23617;SDS011;18207;32.078;34.818;2022-11-15T10:05:43;2.42;;;2.20;;
23617;SDS011;18207;32.078;34.818;2022-11-15T10:08:27;2.20;;;2.10;;
23617;SDS011;18207;32.078;34.818;2022-11-15T10:11:32;2.13;;;1.92;;
23617;SDS011;18207;32.078;34.818;2022-11-15T10:14:12;2.30;;;2.20;;
23617;SDS011;18207;32.078;34.818;2022-11-15T10:19:54;2.53;;;2.42;;
23617;SDS011;18207;32.078;34.818;2022-11-15T10:22:45;2.47;;;2.28;;
23617;SDS011;18207;32.078;34.818;2022-11-15T10:25:20;2.50;;;2.40;;
23617;SDS011;18207;32.078;34.818;2022-11-15T10:27:54;2.60;;;2.40;;
23617;SDS011;18207;32.078;34.818;2022-11-15T10:30:34;2.65;;;2.45;;
23617;SDS011;18207;32.078;34.818;2022-11-15T10:33:10;2.42;;;2.22;;
23617;SDS011;18207;32.078;34.818;2022-11-15T10:35:49;2.35;;;2.25;;
23617;SDS011;18207;32.078;34.818;2022-11-15T10:38:52;2.17;;;2.08;;
23617;SDS011;18207;32.078;34.818;2022-11-15T10:41:30;2.28;;;2.17;;
23617;SDS011;18207;32.078;34.818;2022-11-15T10:47:16;2.20;;;2.10;;
23617;SDS011;18207;32.078;34.818;2022-11-15T10:50:06;2.25;;;2.15;;
23617;SDS011;18207;32.078;34.818;2022-11-15T10:52:57;2.20;;;2.10;;
23617;SDS011;18207;32.078;34.818;2022-11-15T10:55:37;2.17;;;2.08;;
23617;SDS011;18207;32.078;34.818;2022-11-15T10:58:19;2.20;;;2.10;;
23617;SDS011;18207;32.078;34.818;2022-11-15T11:01:11;2.30;;;2.20;;
23617;SDS011;18207;32.078;34.818;2022-11-15T11:03:57;2.55;;;2.40;;
23617;SDS011;18207;32.078;34.818;2022-11-15T11:06:30;2.30;;;2.10;;
23617;SDS011;18207;32.078;34.818;2022-11-15T11:09:23;2.53;;;2.33;;
23617;SDS011;18207;32.078;34.818;2022-11-15T11:12:04;2.38;;;2.20;;
23617;SDS011;18207;32.078;34.818;2022-11-15T11:14:41;2.28;;;2.17;;
23617;SDS011;18207;32.078;34.818;2022-11-15T11:17:13;2.28;;;2.08;;
23617;SDS011;18207;32.078;34.818;2022-11-15T11:20:02;2.50;;;2.30;;
23617;SDS011;18207;32.078;34.818;2022-11-15T11:22:50;2.30;;;2.10;;
23617;SDS011;18207;32.078;34.818;2022-11-15T11:26:11;2.30;;;2.10;;
23617;SDS011;18207;32.078;34.818;2022-11-15T11:29:19;1.90;;;1.80;;
23617;SDS011;18207;32.078;34.818;2022-11-15T11:32:07;2.10;;;2.00;;
23617;SDS011;18207;32.078;34.818;2022-11-15T11:34:58;2.05;;;1.95;;
23617;SDS011;18207;32.078;34.818;2022-11-15T11:37:44;2.20;;;2.00;;
23617;SDS011;18207;32.078;34.818;2022-11-15T11:40:24;2.17;;;2.08;;
23617;SDS011;18207;32.078;34.818;2022-11-15T11:43:02;2.00;;;1.90;;
23617;SDS011;18207;32.078;34.818;2022-11-15T11:45:58;2.30;;;2.20;;
23617;SDS011;18207;32.078;34.818;2022-11-15T11:49:00;2.05;;;1.95;;
23617;SDS011;18207;32.078;34.818;2022-11-15T11:51:41;2.15;;;1.98;;
23617;SDS011;18207;32.078;34.818;2022-11-15T11:54:20;2.35;;;2.25;;
23617;SDS011;18207;32.078;34.818;2022-11-15T11:57:02;2.35;;;2.25;;
23617;SDS011;18207;32.078;34.818;2022-11-15T11:59:42;2.17;;;2.08;;
23617;SDS011;18207;32.078;34.818;2022-11-15T12:02:25;2.10;;;2.00;;
23617;SDS011;18207;32.078;34.818;2022-11-15T12:05:07;2.10;;;2.00;;
23617;SDS011;18207;32.078;34.818;2022-11-15T12:07:47;2.10;;;2.00;;
23617;SDS011;18207;32.078;34.818;2022-11-15T12:10:30;2.17;;;2.08;;
23617;SDS011;18207;32.078;34.818;2022-11-15T12:13:06;2.10;;;2.00;;
23617;SDS011;18207;32.078;34.818;2022-11-15T12:15:45;2.20;;;2.10;;
23617;SDS011;18207;32.078;34.818;2022-11-15T12:18:25;2.50;;;2.35;;
23617;SDS011;18207;32.078;34.818;2022-11-15T12:20:59;2.33;;;2.22;;
23617;SDS011;18207;32.078;34.818;2022-11-15T12:23:39;2.20;;;2.10;;
23617;SDS011;18207;32.078;34.818;2022-11-15T12:26:17;2.40;;;2.20;;
23617;SDS011;18207;32.078;34.818;2022-11-15T12:28:54;2.20;;;2.10;;
23617;SDS011;18207;32.078;34.818;2022-11-15T12:31:35;2.40;;;2.30;;
23617;SDS011;18207;32.078;34.818;2022-11-15T12:34:14;2.28;;;2.15;;
23617;SDS011;18207;32.078;34.818;2022-11-15T12:40:29;2.28;;;2.17;;
23617;SDS011;18207;32.078;34.818;2022-11-15T12:46:11;2.25;;;2.15;;
23617;SDS011;18207;32.078;34.818;2022-11-15T12:48:55;2.15;;;2.05;;
23617;SDS011;18207;32.078;34.818;2022-11-15T12:54:55;2.30;;;2.20;;
23617;SDS011;18207;32.078;34.818;2022-11-15T13:03:27;2.20;;;2.10;;
23617;SDS011;18207;32.078;34.818;2022-11-15T13:15:31;2.13;;;2.03;;
23617;SDS011;18207;32.078;34.818;2022-11-15T13:21:19;2.75;;;1.95;;
23617;SDS011;18207;32.078;34.818;2022-11-15T13:24:15;1.90;;;1.80;;
23617;SDS011;18207;32.078;34.818;2022-11-15T13:26:46;2.05;;;1.95;;
23617;SDS011;18207;32.078;34.818;2022-11-15T13:29:19;2.10;;;2.00;;
23617;SDS011;18207;32.078;34.818;2022-11-15T13:31:50;2.33;;;2.22;;
23617;SDS011;18207;32.078;34.818;2022-11-15T13:34:26;2.30;;;2.10;;
23617;SDS011;18207;32.078;34.818;2022-11-15T13:37:28;2.10;;;2.00;;
23617;SDS011;18207;32.078;34.818;2022-11-15T13:40:15;2.13;;;2.03;;
23617;SDS011;18207;32.078;34.818;2022-11-15T13:42:57;2.00;;;1.90;;
23617;SDS011;18207;32.078;34.818;2022-11-15T13:45:29;2.20;;;2.10;;
23617;SDS011;18207;32.078;34.818;2022-11-15T13:47:59;2.10;;;2.00;;
23617;SDS011;18207;32.078;34.818;2022-11-15T13:50:34;2.05;;;1.95;;
23617;SDS011;18207;32.078;34.818;2022-11-15T13:53:09;2.10;;;2.00;;
23617;SDS011;18207;32.078;34.818;2022-11-15T13:55:40;2.13;;;2.03;;
23617;SDS011;18207;32.078;34.818;2022-11-15T13:58:12;2.10;;;1.92;;
23617;SDS011;18207;32.078;34.818;2022-11-15T14:00:57;2.03;;;1.92;;
23617;SDS011;18207;32.078;34.818;2022-11-15T14:03:34;1.95;;;1.85;;
23617;SDS011;18207;32.078;34.818;2022-11-15T14:06:14;2.10;;;2.00;;
23617;SDS011;18207;32.078;34.818;2022-11-15T14:09:28;2.15;;;1.88;;
23617;SDS011;18207;32.078;34.818;2022-11-15T14:12:01;2.10;;;2.00;;
23617;SDS011;18207;32.078;34.818;2022-11-15T14:14:52;2.15;;;1.85;;
23617;SDS011;18207;32.078;34.818;2022-11-15T14:17:35;1.90;;;1.80;;
23617;SDS011;18207;32.078;34.818;2022-11-15T14:20:29;1.90;;;1.80;;
23617;SDS011;18207;32.078;34.818;2022-11-15T14:23:03;1.90;;;1.80;;
23617;SDS011;18207;32.078;34.818;2022-11-15T14:25:52;1.98;;;1.88;;
23617;SDS011;18207;32.078;34.818;2022-11-15T14:28:28;1.90;;;1.80;;
23617;SDS011;18207;32.078;34.818;2022-11-15T14:31:07;2.15;;;2.05;;
23617;SDS011;18207;32.078;34.818;2022-11-15T14:33:43;1.98;;;1.88;;
23617;SDS011;18207;32.078;34.818;2022-11-15T14:36:14;2.20;;;2.10;;
23617;SDS011;18207;32.078;34.818;2022-11-15T14:38:47;1.80;;;1.70;;
23617;SDS011;18207;32.078;34.818;2022-11-15T14:41:19;2.00;;;1.90;;
23617;SDS011;18207;32.078;34.818;2022-11-15T14:43:52;1.98;;;1.88;;
23617;SDS011;18207;32.078;34.818;2022-11-15T14:46:23;1.95;;;1.85;;
23617;SDS011;18207;32.078;34.818;2022-11-15T14:48:55;1.70;;;1.60;;
23617;SDS011;18207;32.078;34.818;2022-11-15T14:51:26;1.90;;;1.80;;
23617;SDS011;18207;32.078;34.818;2022-11-15T14:53:56;2.08;;;1.98;;
23617;SDS011;18207;32.078;34.818;2022-11-15T14:56:27;2.03;;;1.92;;
23617;SDS011;18207;32.078;34.818;2022-11-15T14:58:58;1.90;;;1.80;;
23617;SDS011;18207;32.078;34.818;2022-11-15T15:01:28;1.90;;;1.80;;
23617;SDS011;18207;32.078;34.818;2022-11-15T15:04:01;1.90;;;1.80;;
23617;SDS011;18207;32.078;34.818;2022-11-15T15:06:31;1.83;;;1.73;;
23617;SDS011;18207;32.078;34.818;2022-11-15T15:09:01;2.28;;;2.17;;
23617;SDS011;18207;32.078;34.818;2022-11-15T15:11:32;2.00;;;1.90;;
23617;SDS011;18207;32.078;34.818;2022-11-15T15:14:02;1.92;;;1.83;;
23617;SDS011;18207;32.078;34.818;2022-11-15T15:16:32;1.85;;;1.75;;
23617;SDS011;18207;32.078;34.818;2022-11-15T15:19:05;1.85;;;1.75;;
23617;SDS011;18207;32.078;34.818;2022-11-15T15:21:35;2.00;;;1.90;;
23617;SDS011;18207;32.078;34.818;2022-11-15T15:24:07;1.92;;;1.83;;
23617;SDS011;18207;32.078;34.818;2022-11-15T15:26:43;1.83;;;1.73;;
23617;SDS011;18207;32.078;34.818;2022-11-15T15:29:13;2.13;;;2.00;;
23617;SDS011;18207;32.078;34.818;2022-11-15T15:31:44;2.17;;;1.92;;
23617;SDS011;18207;32.078;34.818;2022-11-15T15:34:16;1.83;;;1.73;;
23617;SDS011;18207;32.078;34.818;2022-11-15T15:36:46;1.98;;;1.88;;
23617;SDS011;18207;32.078;34.818;2022-11-15T15:39:17;2.15;;;1.80;;
23617;SDS011;18207;32.078;34.818;2022-11-15T15:41:47;2.00;;;1.90;;
23617;SDS011;18207;32.078;34.818;2022-11-15T15:44:23;2.00;;;1.90;;
23617;SDS011;18207;32.078;34.818;2022-11-15T15:46:53;2.00;;;1.90;;
23617;SDS011;18207;32.078;34.818;2022-11-15T15:49:26;2.10;;;2.00;;
23617;SDS011;18207;32.078;34.818;2022-11-15T15:51:57;2.00;;;1.90;;
23617;SDS011;18207;32.078;34.818;2022-11-15T15:54:27;1.95;;;1.85;;
23617;SDS011;18207;32.078;34.818;2022-11-15T15:56:57;1.88;;;1.77;;
23617;SDS011;18207;32.078;34.818;2022-11-15T15:59:28;1.98;;;1.88;;
23617;SDS011;18207;32.078;34.818;2022-11-15T16:01:58;2.10;;;2.00;;
23617;SDS011;18207;32.078;34.818;2022-11-15T16:04:31;2.03;;;1.92;;
23617;SDS011;18207;32.078;34.818;2022-11-15T16:07:01;1.88;;;1.77;;
23617;SDS011;18207;32.078;34.818;2022-11-15T16:09:32;2.10;;;2.00;;